Date,TemperatureHighF,TemperatureAvgF,TemperatureLowF,DewpointHighF,DewpointAvgF,DewpointLowF,HumidityHigh,HumidityAvg,HumidityLow,PressureMaxIn,PressureMinIn,WindSpeedMaxMPH,WindSpeedAvgMPH,GustSpeedMaxMPH,PrecipitationSumIn
2013-5-1,79,56,35,40,34,28,82,52,17,30.17,30.03,15,0,15,0.00
2013-5-2,82,58,38,47,39,27,81,54,26,30.18,29.99,10,0,13,0.00
2013-5-3,71,52,34,43,37,27,81,59,34,30.24,30.05,13,0,13,0.00
2013-5-4,76,56,37,49,37,30,81,54,23,30.09,29.91,14,0,14,0.00
2013-5-5,76,53,34,41,35,28,83,55,23,30.01,29.87,8,0,12,0.00
2013-5-6,80,55,34,46,33,22,80,52,14,29.96,29.79,12,0,13,0.00
2013-5-7,83,59,38,53,41,31,80,57,21,29.88,29.74,10,0,11,0.00
2013-5-8,73,59,46,60,49,37,79,70,58,29.90,29.73,14,0,21,0.00
2013-5-9,70,62,52,59,51,43,75,69,63,29.73,29.56,9,0,10,0.00
2013-5-10,75,60,46,62,50,36,74,68,54,29.68,29.56,7,0,10,0.00
2013-5-11,67,61,56,57,49,44,71,65,62,29.56,29.35,9,0,10,0.00
2013-5-12,62,52,35,49,39,26,80,62,38,29.51,29.31,16,1,19,0.00
2013-5-13,50,42,38,33,30,27,79,64,46,29.78,29.50,15,1,16,0.00
2013-5-14,54,43,31,36,30,24,83,63,38,29.82,29.71,11,0,12,0.00
2013-5-15,61,45,28,44,34,20,79,66,37,29.78,29.39,13,1,15,0.00
2013-5-16,76,57,39,48,38,30,77,52,27,29.57,29.33,17,2,24,0.00
2013-5-17,66,51,40,44,38,31,77,63,38,29.95,29.56,11,1,14,0.00
2013-5-18,73,53,34,48,38,26,77,58,29,30.03,29.91,6,0,7,0.00
2013-5-19,69,54,41,55,43,32,77,67,50,30.03,29.88,10,0,11,0.00
2013-5-20,75,63,54,64,52,42,73,67,61,29.88,29.66,11,0,13,0.00
2013-5-21,85,64,51,69,52,39,76,64,48,29.73,29.53,10,0,11,0.00
2013-5-22,74,61,52,64,48,39,71,62,55,29.66,29.54,4,0,9,0.00
2013-5-23,76,66,59,64,52,45,67,60,53,29.57,29.44,7,0,9,0.00
2013-5-24,64,55,44,48,43,33,76,65,56,29.64,29.33,8,0,14,0.00
2013-5-25,44,41,36,34,32,27,72,68,65,29.62,29.55,13,0,17,0.00
2013-5-26,53,44,35,43,35,26,78,72,64,29.82,29.52,14,1,16,0.00
2013-5-27,69,50,31,48,34,22,75,57,33,29.91,29.81,13,0,16,0.00
2013-5-28,72,54,34,51,39,25,74,58,36,29.98,29.83,11,0,12,0.00
2013-5-29,61,58,54,46,44,41,71,60,57,29.86,29.69,5,0,5,0.02
2013-5-30,87,70,58,70,55,43,69,59,50,29.80,29.71,2,0,5,0.00
2013-5-31,92,73,55,71,55,41,71,55,30,29.81,29.63,0,0,0,0.00